sensor_id;sensor_type;location;lat;lon;timestamp;pressure;altitude;pressure_sealevel;temperature;humidity
67931;BME280;63902;52.000;5.954;2023-04-16T00:00:04;101728.09;;;6.94;95.74
67931;BME280;63902;52.000;5.954;2023-04-16T00:01:05;101727.25;;;6.94;95.95
67931;BME280;63902;52.000;5.954;2023-04-16T00:02:06;101718.50;;;6.90;96.34
67931;BME280;63902;52.000;5.954;2023-04-16T00:03:06;101721.97;;;6.94;96.29
67931;BME280;63902;52.000;5.954;2023-04-16T00:04:07;101727.19;;;6.97;95.91
67931;BME280;63902;52.000;5.954;2023-04-16T00:05:09;101721.94;;;6.97;96.30
67931;BME280;63902;52.000;5.954;2023-04-16T00:06:09;101724.59;;;6.95;96.95
67931;BME280;63902;52.000;5.954;2023-04-16T00:07:10;101709.69;;;6.93;96.37
67931;BME280;63902;52.000;5.954;2023-04-16T00:08:11;101722.81;;;6.98;97.83
67931;BME280;63902;52.000;5.954;2023-04-16T00:09:11;101732.47;;;6.99;97.46
67931;BME280;63902;52.000;5.954;2023-04-16T00:10:12;101727.19;;;6.99;97.24
67931;BME280;63902;52.000;5.954;2023-04-16T00:11:13;101712.31;;;6.91;98.08
67931;BME280;63902;52.000;5.954;2023-04-16T00:12:14;101722.81;;;6.98;98.01
67931;BME280;63902;52.000;5.954;2023-04-16T00:13:14;101722.81;;;6.98;97.12
67931;BME280;63902;52.000;5.954;2023-04-16T00:14:15;101711.50;;;6.89;96.77
67931;BME280;63902;52.000;5.954;2023-04-16T00:15:15;101715.78;;;6.97;97.27
67931;BME280;63902;52.000;5.954;2023-04-16T00:16:16;101698.38;;;6.82;97.49
67931;BME280;63902;52.000;5.954;2023-04-16T00:17:16;101718.41;;;6.97;97.20
67931;BME280;63902;52.000;5.954;2023-04-16T00:18:17;101724.56;;;7.00;99.03
67931;BME280;63902;52.000;5.954;2023-04-16T00:19:17;101717.56;;;6.98;98.96
67931;BME280;63902;52.000;5.954;2023-04-16T00:20:19;101715.75;;;7.00;98.27
67931;BME280;63902;52.000;5.954;2023-04-16T00:21:20;101728.06;;;7.01;99.18
67931;BME280;63902;52.000;5.954;2023-04-16T00:22:20;101728.06;;;7.01;98.59
67931;BME280;63902;52.000;5.954;2023-04-16T00:23:21;101737.75;;;7.00;97.79
67931;BME280;63902;52.000;5.954;2023-04-16T00:24:21;101729.84;;;6.99;97.18
67931;BME280;63902;52.000;5.954;2023-04-16T00:25:22;101722.78;;;7.01;97.45
67931;BME280;63902;52.000;5.954;2023-04-16T00:26:22;101728.91;;;7.03;97.12
67931;BME280;63902;52.000;5.954;2023-04-16T00:27:23;101728.91;;;7.03;97.10
67931;BME280;63902;52.000;5.954;2023-04-16T00:28:23;101728.03;;;7.04;97.60
67931;BME280;63902;52.000;5.954;2023-04-16T00:29:24;101727.16;;;7.03;97.49
67931;BME280;63902;52.000;5.954;2023-04-16T00:30:24;101728.03;;;7.04;97.27
67931;BME280;63902;52.000;5.954;2023-04-16T00:31:26;101731.53;;;7.03;96.70
67931;BME280;63902;52.000;5.954;2023-04-16T00:32:27;101731.53;;;7.04;97.32
67931;BME280;63902;52.000;5.954;2023-04-16T00:33:28;101728.03;;;7.04;97.49
67931;BME280;63902;52.000;5.954;2023-04-16T00:34:28;101718.41;;;6.97;97.82
67931;BME280;63902;52.000;5.954;2023-04-16T00:35:30;101713.22;;;6.92;98.08
67931;BME280;63902;52.000;5.954;2023-04-16T00:36:30;101735.91;;;7.05;98.23
67931;BME280;63902;52.000;5.954;2023-04-16T00:37:31;101730.63;;;7.05;98.32
67931;BME280;63902;52.000;5.954;2023-04-16T00:38:31;101733.25;;;7.05;98.66
67931;BME280;63902;52.000;5.954;2023-04-16T00:39:32;101728.88;;;7.06;98.78
67931;BME280;63902;52.000;5.954;2023-04-16T00:40:32;101724.53;;;7.02;99.72
67931;BME280;63902;52.000;5.954;2023-04-16T00:41:33;101724.50;;;7.03;100.00
67931;BME280;63902;52.000;5.954;2023-04-16T00:42:33;101710.47;;;7.00;99.24
67931;BME280;63902;52.000;5.954;2023-04-16T00:43:34;101721.84;;;7.05;99.08
67931;BME280;63902;52.000;5.954;2023-04-16T00:44:34;101730.63;;;7.05;98.72
67931;BME280;63902;52.000;5.954;2023-04-16T00:45:35;101720.97;;;7.06;98.84
67931;BME280;63902;52.000;5.954;2023-04-16T00:46:36;101712.25;;;7.01;99.95
67931;BME280;63902;52.000;5.954;2023-04-16T00:47:37;101723.63;;;7.04;99.25
67931;BME280;63902;52.000;5.954;2023-04-16T00:48:39;101718.34;;;7.06;99.34
67931;BME280;63902;52.000;5.954;2023-04-16T00:49:40;101711.28;;;7.05;99.27
67931;BME280;63902;52.000;5.954;2023-04-16T00:50:41;101714.88;;;7.01;99.22
67931;BME280;63902;52.000;5.954;2023-04-16T00:51:42;101710.50;;;6.97;98.96
67931;BME280;63902;52.000;5.954;2023-04-16T00:52:42;101729.72;;;7.08;99.08
67931;BME280;63902;52.000;5.954;2023-04-16T00:53:46;101717.50;;;7.01;98.21
67931;BME280;63902;52.000;5.954;2023-04-16T00:54:46;101726.22;;;7.07;98.42
67931;BME280;63902;52.000;5.954;2023-04-16T00:55:47;101729.72;;;7.08;98.19
67931;BME280;63902;52.000;5.954;2023-04-16T00:56:48;101733.22;;;7.10;97.96
67931;BME280;63902;52.000;5.954;2023-04-16T00:57:49;101725.31;;;7.10;98.01
67931;BME280;63902;52.000;5.954;2023-04-16T00:58:50;101727.94;;;7.11;100.00
67931;BME280;63902;52.000;5.954;2023-04-16T00:59:50;101713.97;;;7.02;100.00
67931;BME280;63902;52.000;5.954;2023-04-16T01:00:51;101704.31;;;6.99;100.00
67931;BME280;63902;52.000;5.954;2023-04-16T01:01:52;101728.84;;;7.07;99.93
67931;BME280;63902;52.000;5.954;2023-04-16T01:02:52;101733.22;;;7.10;99.18
67931;BME280;63902;52.000;5.954;2023-04-16T01:03:53;101698.31;;;6.89;99.06
67931;BME280;63902;52.000;5.954;2023-04-16T01:04:54;101713.97;;;7.02;99.77
67931;BME280;63902;52.000;5.954;2023-04-16T01:05:56;101727.06;;;7.09;99.21
67931;BME280;63902;52.000;5.954;2023-04-16T01:06:56;101715.75;;;7.00;98.93
67931;BME280;63902;52.000;5.954;2023-04-16T01:07:58;101731.44;;;7.12;98.38
67931;BME280;63902;52.000;5.954;2023-04-16T01:08:58;101727.91;;;7.13;98.59
67931;BME280;63902;52.000;5.954;2023-04-16T01:09:59;101724.44;;;7.09;98.40
67931;BME280;63902;52.000;5.954;2023-04-16T01:10:59;101734.91;;;7.14;100.00
67931;BME280;63902;52.000;5.954;2023-04-16T01:12:00;101727.97;;;7.07;100.00
67931;BME280;63902;52.000;5.954;2023-04-16T01:13:00;101735.81;;;7.13;100.00
67931;BME280;63902;52.000;5.954;2023-04-16T01:14:01;101726.13;;;7.13;99.92
67931;BME280;63902;52.000;5.954;2023-04-16T01:15:01;101734.03;;;7.13;99.59
67931;BME280;63902;52.000;5.954;2023-04-16T01:16:02;101718.22;;;7.13;99.37
67931;BME280;63902;52.000;5.954;2023-04-16T01:17:03;101723.50;;;7.15;99.35
67931;BME280;63902;52.000;5.954;2023-04-16T01:18:12;101726.16;;;7.12;99.69
67931;BME280;63902;52.000;5.954;2023-04-16T01:19:13;101717.31;;;7.16;100.00
67931;BME280;63902;52.000;5.954;2023-04-16T01:20:13;101719.13;;;7.11;100.00
67931;BME280;63902;52.000;5.954;2023-04-16T01:21:15;101730.53;;;7.14;99.80
67931;BME280;63902;52.000;5.954;2023-04-16T01:22:16;101733.19;;;7.14;99.21
67931;BME280;63902;52.000;5.954;2023-04-16T01:23:17;101741.97;;;7.15;99.28
67931;BME280;63902;52.000;5.954;2023-04-16T01:24:17;101741.97;;;7.15;98.97
67931;BME280;63902;52.000;5.954;2023-04-16T01:25:18;101737.53;;;7.17;99.43
67931;BME280;63902;52.000;5.954;2023-04-16T01:26:18;101740.19;;;7.17;99.33
67931;BME280;63902;52.000;5.954;2023-04-16T01:27:19;101745.47;;;7.17;99.31
67931;BME280;63902;52.000;5.954;2023-04-16T01:28:19;101743.69;;;7.16;98.89
67931;BME280;63902;52.000;5.954;2023-04-16T01:29:20;101742.81;;;7.17;99.18
67931;BME280;63902;52.000;5.954;2023-04-16T01:30:20;101734.00;;;7.18;99.39
67931;BME280;63902;52.000;5.954;2023-04-16T01:31:21;101737.50;;;7.18;100.00
67931;BME280;63902;52.000;5.954;2023-04-16T01:32:21;101743.66;;;7.19;100.00
67931;BME280;63902;52.000;5.954;2023-04-16T01:33:22;101741.00;;;7.19;100.00
67931;BME280;63902;52.000;5.954;2023-04-16T01:34:22;101737.50;;;7.18;99.68
67931;BME280;63902;52.000;5.954;2023-04-16T01:35:23;101734.91;;;7.17;99.04
67931;BME280;63902;52.000;5.954;2023-04-16T01:36:25;101737.50;;;7.18;100.00
67931;BME280;63902;52.000;5.954;2023-04-16T01:37:26;101733.09;;;7.19;100.00
67931;BME280;63902;52.000;5.954;2023-04-16T01:38:26;101734.88;;;7.20;99.75
67931;BME280;63902;52.000;5.954;2023-04-16T01:39:27;101723.41;;;7.20;100.00
67931;BME280;63902;52.000;5.954;2023-04-16T01:40:27;101720.00;;;7.13;100.00
67931;BME280;63902;52.000;5.954;2023-04-16T01:41:28;101722.53;;;7.19;100.00
67931;BME280;63902;52.000;5.954;2023-04-16T01:42:28;101728.69;;;7.21;99.49
67931;BME280;63902;52.000;5.954;2023-04-16T01:43:29;101727.00;;;7.17;99.62
67931;BME280;63902;52.000;5.954;2023-04-16T01:44:29;101728.69;;;7.23;100.00
67931;BME280;63902;52.000;5.954;2023-04-16T01:45:30;101728.69;;;7.23;99.50
67931;BME280;63902;52.000;5.954;2023-04-16T01:46:32;101702.38;;;7.13;99.99
67931;BME280;63902;52.000;5.954;2023-04-16T01:47:34;101708.56;;;7.11;99.91
67931;BME280;63902;52.000;5.954;2023-04-16T01:48:35;101719.00;;;7.22;99.62
67931;BME280;63902;52.000;5.954;2023-04-16T01:49:35;101729.53;;;7.23;100.00
67931;BME280;63902;52.000;5.954;2023-04-16T01:50:36;101729.53;;;7.23;100.00
67931;BME280;63902;52.000;5.954;2023-04-16T01:51:38;101719.03;;;7.20;100.00
67931;BME280;63902;52.000;5.954;2023-04-16T01:52:38;101722.50;;;7.22;99.68
67931;BME280;63902;52.000;5.954;2023-04-16T01:53:39;101725.19;;;7.19;99.49
67931;BME280;63902;52.000;5.954;2023-04-16T01:54:39;101712.03;;;7.16;100.00
67931;BME280;63902;52.000;5.954;2023-04-16T01:55:40;101716.44;;;7.17;99.60
67931;BME280;63902;52.000;5.954;2023-04-16T01:56:40;101723.41;;;7.21;100.00
67931;BME280;63902;52.000;5.954;2023-04-16T01:57:41;101726.00;;;7.24;100.00
67931;BME280;63902;52.000;5.954;2023-04-16T01:58:41;101728.69;;;7.23;100.00
67931;BME280;63902;52.000;5.954;2023-04-16T01:59:42;101716.44;;;7.14;100.00
67931;BME280;63902;52.000;5.954;2023-04-16T02:00:42;101730.38;;;7.25;100.00
67931;BME280;63902;52.000;5.954;2023-04-16T02:01:43;101723.41;;;7.21;100.00
67931;BME280;63902;52.000;5.954;2023-04-16T02:02:43;101718.19;;;7.16;100.00
67931;BME280;63902;52.000;5.954;2023-04-16T02:03:44;101728.63;;;7.24;100.00
67931;BME280;63902;52.000;5.954;2023-04-16T02:04:45;101731.28;;;7.24;99.90
67931;BME280;63902;52.000;5.954;2023-04-16T02:05:45;101727.75;;;7.25;100.00
67931;BME280;63902;52.000;5.954;2023-04-16T02:06:47;101727.75;;;7.25;100.00
67931;BME280;63902;52.000;5.954;2023-04-16T02:07:48;101721.66;;;7.20;100.00
67931;BME280;63902;52.000;5.954;2023-04-16T02:08:48;101728.63;;;7.26;100.00
67931;BME280;63902;52.000;5.954;2023-04-16T02:09:49;101717.31;;;7.16;100.00
67931;BME280;63902;52.000;5.954;2023-04-16T02:10:49;101718.13;;;7.21;99.82
67931;BME280;63902;52.000;5.954;2023-04-16T02:11:50;101720.72;;;7.24;100.00
67931;BME280;63902;52.000;5.954;2023-04-16T02:12:50;101728.59;;;7.27;100.00
67931;BME280;63902;52.000;5.954;2023-04-16T02:13:51;101735.66;;;7.27;100.00
67931;BME280;63902;52.000;5.954;2023-04-16T02:14:51;101735.66;;;7.27;100.00
67931;BME280;63902;52.000;5.954;2023-04-16T02:15:52;101731.25;;;7.27;100.00
67931;BME280;63902;52.000;5.954;2023-04-16T02:16:52;101737.41;;;7.26;100.00
67931;BME280;63902;52.000;5.954;2023-04-16T02:17:53;101728.63;;;7.26;100.00
67931;BME280;63902;52.000;5.954;2023-04-16T02:18:53;101731.28;;;7.26;100.00
67931;BME280;63902;52.000;5.954;2023-04-16T02:19:54;101734.78;;;7.26;100.00
67931;BME280;63902;52.000;5.954;2023-04-16T02:20:57;101729.53;;;7.23;100.00
67931;BME280;63902;52.000;5.954;2023-04-16T02:21:59;101707.72;;;7.10;100.00
67931;BME280;63902;52.000;5.954;2023-04-16T02:22:59;101729.50;;;7.25;100.00
67931;BME280;63902;52.000;5.954;2023-04-16T02:24:00;101712.84;;;7.20;100.00
67931;BME280;63902;52.000;5.954;2023-04-16T02:25:00;101719.88;;;7.22;100.00
67931;BME280;63902;52.000;5.954;2023-04-16T02:26:01;101727.75;;;7.25;99.88
67931;BME280;63902;52.000;5.954;2023-04-16T02:27:02;101729.47;;;7.28;100.00
67931;BME280;63902;52.000;5.954;2023-04-16T02:28:03;101724.22;;;7.26;100.00
67931;BME280;63902;52.000;5.954;2023-04-16T02:29:04;101719.00;;;7.22;100.00
67931;BME280;63902;52.000;5.954;2023-04-16T02:30:05;101729.50;;;7.26;100.00
67931;BME280;63902;52.000;5.954;2023-04-16T02:31:06;101724.22;;;7.26;100.00
67931;BME280;63902;52.000;5.954;2023-04-16T02:32:06;101701.56;;;7.08;100.00
67931;BME280;63902;52.000;5.954;2023-04-16T02:33:08;101728.63;;;7.26;100.00
67931;BME280;63902;52.000;5.954;2023-04-16T02:34:10;101730.38;;;7.25;100.00
67931;BME280;63902;52.000;5.954;2023-04-16T02:35:10;101725.19;;;7.21;100.00
67931;BME280;63902;52.000;5.954;2023-04-16T02:36:10;101726.03;;;7.21;100.00
67931;BME280;63902;52.000;5.954;2023-04-16T02:37:12;101733.00;;;7.25;100.00
67931;BME280;63902;52.000;5.954;2023-04-16T02:38:13;101734.78;;;7.25;100.00
67931;BME280;63902;52.000;5.954;2023-04-16T02:39:13;101726.03;;;7.23;100.00
67931;BME280;63902;52.000;5.954;2023-04-16T02:40:14;101736.56;;;7.24;100.00
67931;BME280;63902;52.000;5.954;2023-04-16T02:41:14;101733.91;;;7.24;100.00
67931;BME280;63902;52.000;5.954;2023-04-16T02:42:15;101725.19;;;7.21;100.00
67931;BME280;63902;52.000;5.954;2023-04-16T02:43:16;101732.16;;;7.25;100.00
67931;BME280;63902;52.000;5.954;2023-04-16T02:44:16;101729.56;;;7.22;100.00
67931;BME280;63902;52.000;5.954;2023-04-16T02:45:17;101733.91;;;7.26;100.00
67931;BME280;63902;52.000;5.954;2023-04-16T02:46:17;101737.44;;;7.25;100.00
67931;BME280;63902;52.000;5.954;2023-04-16T02:47:18;101731.28;;;7.24;100.00
67931;BME280;63902;52.000;5.954;2023-04-16T02:48:18;101732.22;;;7.20;100.00
67931;BME280;63902;52.000;5.954;2023-04-16T02:49:19;101732.16;;;7.25;100.00
67931;BME280;63902;52.000;5.954;2023-04-16T02:50:19;101741.84;;;7.26;100.00
67931;BME280;63902;52.000;5.954;2023-04-16T02:51:20;101734.78;;;7.25;100.00
67931;BME280;63902;52.000;5.954;2023-04-16T02:52:21;101734.81;;;7.23;100.00
67931;BME280;63902;52.000;5.954;2023-04-16T02:53:22;101718.22;;;7.15;100.00
67931;BME280;63902;52.000;5.954;2023-04-16T02:54:22;101731.28;;;7.24;100.00
67931;BME280;63902;52.000;5.954;2023-04-16T02:55:23;101738.31;;;7.24;100.00
67931;BME280;63902;52.000;5.954;2023-04-16T02:56:24;101730.41;;;7.22;100.00
67931;BME280;63902;52.000;5.954;2023-04-16T02:57:24;101707.75;;;7.07;100.00
67931;BME280;63902;52.000;5.954;2023-04-16T02:58:25;101740.06;;;7.25;100.00
67931;BME280;63902;52.000;5.954;2023-04-16T02:59:26;101736.56;;;7.24;100.00
67931;BME280;63902;52.000;5.954;2023-04-16T03:00:26;101715.56;;;7.15;100.00
67931;BME280;63902;52.000;5.954;2023-04-16T03:01:27;101733.91;;;7.24;100.00
67931;BME280;63902;52.000;5.954;2023-04-16T03:02:27;101737.41;;;7.26;100.00
67931;BME280;63902;52.000;5.954;2023-04-16T03:03:28;101730.41;;;7.24;100.00
67931;BME280;63902;52.000;5.954;2023-04-16T03:04:28;101730.38;;;7.25;100.00
67931;BME280;63902;52.000;5.954;2023-04-16T03:05:29;101738.28;;;7.27;100.00
67931;BME280;63902;52.000;5.954;2023-04-16T03:06:29;101741.78;;;7.29;100.00
67931;BME280;63902;52.000;5.954;2023-04-16T03:07:31;101741.78;;;7.27;100.00
67931;BME280;63902;52.000;5.954;2023-04-16T03:08:31;101737.38;;;7.28;100.00
67931;BME280;63902;52.000;5.954;2023-04-16T03:09:32;101737.41;;;7.26;100.00
67931;BME280;63902;52.000;5.954;2023-04-16T03:10:32;101747.97;;;7.26;100.00
67931;BME280;63902;52.000;5.954;2023-04-16T03:11:33;101720.84;;;7.15;100.00
67931;BME280;63902;52.000;5.954;2023-04-16T03:12:33;101748.84;;;7.25;100.00
67931;BME280;63902;52.000;5.954;2023-04-16T03:13:34;101743.56;;;7.25;100.00
67931;BME280;63902;52.000;5.954;2023-04-16T03:14:34;101754.13;;;7.25;100.00
67931;BME280;63902;52.000;5.954;2023-04-16T03:15:35;101747.16;;;7.21;100.00
67931;BME280;63902;52.000;5.954;2023-04-16T03:16:35;101732.31;;;7.12;100.00
67931;BME280;63902;52.000;5.954;2023-04-16T03:17:36;101751.56;;;7.21;100.00
67931;BME280;63902;52.000;5.954;2023-04-16T03:18:36;101764.69;;;7.25;100.00
67931;BME280;63902;52.000;5.954;2023-04-16T03:19:37;101747.06;;;7.27;100.00
67931;BME280;63902;52.000;5.954;2023-04-16T03:20:37;101744.44;;;7.27;100.00
67931;BME280;63902;52.000;5.954;2023-04-16T03:21:38;101758.50;;;7.28;100.00
67931;BME280;63902;52.000;5.954;2023-04-16T03:22:40;101748.84;;;7.28;100.00
67931;BME280;63902;52.000;5.954;2023-04-16T03:23:40;101749.72;;;7.27;100.00
67931;BME280;63902;52.000;5.954;2023-04-16T03:24:41;101742.69;;;7.26;100.00
67931;BME280;63902;52.000;5.954;2023-04-16T03:25:41;101758.53;;;7.25;100.00
67931;BME280;63902;52.000;5.954;2023-04-16T03:26:42;101753.25;;;7.26;100.00
67931;BME280;63902;52.000;5.954;2023-04-16T03:27:42;101763.78;;;7.28;100.00
67931;BME280;63902;52.000;5.954;2023-04-16T03:28:42;101761.16;;;7.26;100.00
67931;BME280;63902;52.000;5.954;2023-04-16T03:29:43;101761.16;;;7.26;100.00
67931;BME280;63902;52.000;5.954;2023-04-16T03:30:49;101762.03;;;7.25;100.00
67931;BME280;63902;52.000;5.954;2023-04-16T03:31:49;101758.50;;;7.28;100.00
67931;BME280;63902;52.000;5.954;2023-04-16T03:32:50;101752.44;;;7.21;100.00
67931;BME280;63902;52.000;5.954;2023-04-16T03:33:50;101760.25;;;7.27;100.00
67931;BME280;63902;52.000;5.954;2023-04-16T03:34:51;101763.78;;;7.28;100.00
67931;BME280;63902;52.000;5.954;2023-04-16T03:35:54;101763.78;;;7.28;100.00
67931;BME280;63902;52.000;5.954;2023-04-16T03:36:55;101769.03;;;7.28;100.00
67931;BME280;63902;52.000;5.954;2023-04-16T03:37:57;101768.19;;;7.27;100.00
67931;BME280;63902;52.000;5.954;2023-04-16T03:38:57;101769.94;;;7.27;100.00
67931;BME280;63902;52.000;5.954;2023-04-16T03:39:58;101764.66;;;7.28;100.00
67931;BME280;63902;52.000;5.954;2023-04-16T03:40:58;101755.94;;;7.23;100.00
67931;BME280;63902;52.000;5.954;2023-04-16T03:41:59;101768.19;;;7.27;100.00
67931;BME280;63902;52.000;5.954;2023-04-16T03:42:59;101763.81;;;7.25;100.00
67931;BME280;63902;52.000;5.954;2023-04-16T03:44:00;101746.41;;;7.11;100.00
67931;BME280;63902;52.000;5.954;2023-04-16T03:45:00;101768.19;;;7.27;100.00
67931;BME280;63902;52.000;5.954;2023-04-16T03:46:01;101762.06;;;7.24;100.00
67931;BME280;63902;52.000;5.954;2023-04-16T03:47:01;101764.69;;;7.25;100.00
67931;BME280;63902;52.000;5.954;2023-04-16T03:48:02;101769.94;;;7.28;100.00
67931;BME280;63902;52.000;5.954;2023-04-16T03:49:02;101768.19;;;7.29;100.00
67931;BME280;63902;52.000;5.954;2023-04-16T03:50:06;101759.41;;;7.28;100.00
67931;BME280;63902;52.000;5.954;2023-04-16T03:51:10;101767.31;;;7.25;100.00
67931;BME280;63902;52.000;5.954;2023-04-16T03:52:14;101744.56;;;7.16;100.00
67931;BME280;63902;52.000;5.954;2023-04-16T03:53:16;101769.03;;;7.28;100.00
67931;BME280;63902;52.000;5.954;2023-04-16T03:54:17;101763.03;;;7.18;100.00
67931;BME280;63902;52.000;5.954;2023-04-16T03:55:17;101768.22;;;7.24;100.00
67931;BME280;63902;52.000;5.954;2023-04-16T03:56:18;101770.81;;;7.29;100.00
67931;BME280;63902;52.000;5.954;2023-04-16T03:57:18;101772.59;;;7.27;100.00
67931;BME280;63902;52.000;5.954;2023-04-16T03:58:19;101772.56;;;7.30;100.00
67931;BME280;63902;52.000;5.954;2023-04-16T03:59:19;101779.59;;;7.29;100.00
67931;BME280;63902;52.000;5.954;2023-04-16T04:00:20;101773.47;;;7.29;100.00
67931;BME280;63902;52.000;5.954;2023-04-16T04:01:20;101761.22;;;7.22;100.00
67931;BME280;63902;52.000;5.954;2023-04-16T04:02:21;101762.97;;;7.23;100.00
67931;BME280;63902;52.000;5.954;2023-04-16T04:03:21;101768.19;;;7.27;100.00
67931;BME280;63902;52.000;5.954;2023-04-16T04:04:22;101769.09;;;7.26;100.00
67931;BME280;63902;52.000;5.954;2023-04-16T04:05:22;101769.03;;;7.28;100.00
67931;BME280;63902;52.000;5.954;2023-04-16T04:06:23;101768.22;;;7.24;100.00
67931;BME280;63902;52.000;5.954;2023-04-16T04:07:23;101766.50;;;7.22;100.00
67931;BME280;63902;52.000;5.954;2023-04-16T04:08:25;101778.75;;;7.27;100.00
67931;BME280;63902;52.000;5.954;2023-04-16T04:09:26;101770.84;;;7.24;100.00
67931;BME280;63902;52.000;5.954;2023-04-16T04:10:26;101777.00;;;7.26;100.00
67931;BME280;63902;52.000;5.954;2023-04-16T04:11:27;101777.88;;;7.27;100.00
67931;BME280;63902;52.000;5.954;2023-04-16T04:12:27;101777.91;;;7.22;100.00
67931;BME280;63902;52.000;5.954;2023-04-16T04:13:28;101781.38;;;7.27;100.00
67931;BME280;63902;52.000;5.954;2023-04-16T04:14:28;101762.19;;;7.14;100.00
67931;BME280;63902;52.000;5.954;2023-04-16T04:15:29;101771.81;;;7.20;100.00
67931;BME280;63902;52.000;5.954;2023-04-16T04:16:30;101775.31;;;7.21;100.00
67931;BME280;63902;52.000;5.954;2023-04-16T04:17:30;101781.38;;;7.27;100.00
67931;BME280;63902;52.000;5.954;2023-04-16T04:18:31;101778.75;;;7.27;100.00
67931;BME280;63902;52.000;5.954;2023-04-16T04:19:31;101770.91;;;7.23;100.00
67931;BME280;63902;52.000;5.954;2023-04-16T04:20:32;101783.16;;;7.28;100.00
67931;BME280;63902;52.000;5.954;2023-04-16T04:21:32;101780.50;;;7.28;100.00
67931;BME280;63902;52.000;5.954;2023-04-16T04:22:33;101756.03;;;7.14;100.00
67931;BME280;63902;52.000;5.954;2023-04-16T04:23:35;101777.88;;;7.27;100.00
67931;BME280;63902;52.000;5.954;2023-04-16T04:24:36;101777.88;;;7.27;100.00
67931;BME280;63902;52.000;5.954;2023-04-16T04:25:36;101759.47;;;7.19;100.00
67931;BME280;63902;52.000;5.954;2023-04-16T04:26:37;101786.66;;;7.29;100.00
67931;BME280;63902;52.000;5.954;2023-04-16T04:27:37;101789.28;;;7.29;100.00
67931;BME280;63902;52.000;5.954;2023-04-16T04:28:38;101756.97;;;7.10;100.00
67931;BME280;63902;52.000;5.954;2023-04-16T04:29:38;101798.97;;;7.28;100.00
67931;BME280;63902;52.000;5.954;2023-04-16T04:30:39;101796.34;;;7.28;100.00
67931;BME280;63902;52.000;5.954;2023-04-16T04:31:39;101793.69;;;7.28;100.00
67931;BME280;63902;52.000;5.954;2023-04-16T04:32:40;101768.38;;;7.12;100.00
67931;BME280;63902;52.000;5.954;2023-04-16T04:33:40;101791.06;;;7.28;100.00
67931;BME280;63902;52.000;5.954;2023-04-16T04:34:41;101795.47;;;7.26;100.00
67931;BME280;63902;52.000;5.954;2023-04-16T04:35:41;101787.53;;;7.28;100.00
67931;BME280;63902;52.000;5.954;2023-04-16T04:36:42;101792.84;;;7.26;100.00
67931;BME280;63902;52.000;5.954;2023-04-16T04:37:42;101785.78;;;7.25;100.00
67931;BME280;63902;52.000;5.954;2023-04-16T04:38:44;101795.44;;;7.29;100.00
67931;BME280;63902;52.000;5.954;2023-04-16T04:39:44;101796.31;;;7.30;100.00
67931;BME280;63902;52.000;5.954;2023-04-16T04:40:45;101791.94;;;7.29;100.00
67931;BME280;63902;52.000;5.954;2023-04-16T04:41:45;101793.66;;;7.30;100.00
67931;BME280;63902;52.000;5.954;2023-04-16T04:42:46;101796.34;;;7.28;100.00
67931;BME280;63902;52.000;5.954;2023-04-16T04:43:47;101785.78;;;7.28;100.00
67931;BME280;63902;52.000;5.954;2023-04-16T04:44:47;101786.69;;;7.26;100.00
67931;BME280;63902;52.000;5.954;2023-04-16T04:45:48;101790.16;;;7.29;100.00
67931;BME280;63902;52.000;5.954;2023-04-16T04:46:48;101793.69;;;7.28;100.00
67931;BME280;63902;52.000;5.954;2023-04-16T04:47:49;101796.34;;;7.28;100.00
67931;BME280;63902;52.000;5.954;2023-04-16T04:48:49;101778.81;;;7.21;100.00
67931;BME280;63902;52.000;5.954;2023-04-16T04:49:50;101797.19;;;7.29;100.00
67931;BME280;63902;52.000;5.954;2023-04-16T04:50:50;101791.94;;;7.27;100.00
67931;BME280;63902;52.000;5.954;2023-04-16T04:51:51;101762.28;;;7.07;100.00
67931;BME280;63902;52.000;5.954;2023-04-16T04:52:51;101791.94;;;7.27;100.00
67931;BME280;63902;52.000;5.954;2023-04-16T04:53:53;101805.13;;;7.27;100.00
67931;BME280;63902;52.000;5.954;2023-04-16T04:54:54;101799.84;;;7.29;100.00
67931;BME280;63902;52.000;5.954;2023-04-16T04:55:54;101788.50;;;7.19;100.00
67931;BME280;63902;52.000;5.954;2023-04-16T04:56:55;101796.34;;;7.28;100.00
67931;BME280;63902;52.000;5.954;2023-04-16T04:57:55;101791.09;;;7.22;100.00
67931;BME280;63902;52.000;5.954;2023-04-16T04:58:56;101804.25;;;7.28;100.00
67931;BME280;63902;52.000;5.954;2023-04-16T04:59:56;101806.00;;;7.28;100.00
67931;BME280;63902;52.000;5.954;2023-04-16T05:00:57;101800.72;;;7.28;100.00
67931;BME280;63902;52.000;5.954;2023-04-16T05:01:57;101799.84;;;7.27;100.00
67931;BME280;63902;52.000;5.954;2023-04-16T05:03:00;101802.47;;;7.27;100.00
67931;BME280;63902;52.000;5.954;2023-04-16T05:04:01;101796.38;;;7.24;100.00
67931;BME280;63902;52.000;5.954;2023-04-16T05:05:02;101809.53;;;7.28;100.00
67931;BME280;63902;52.000;5.954;2023-04-16T05:06:02;101805.13;;;7.27;100.00
67931;BME280;63902;52.000;5.954;2023-04-16T05:07:03;101806.00;;;7.28;100.00
67931;BME280;63902;52.000;5.954;2023-04-16T05:08:04;101798.13;;;7.26;100.00
67931;BME280;63902;52.000;5.954;2023-04-16T05:09:05;101814.81;;;7.28;100.00
67931;BME280;63902;52.000;5.954;2023-04-16T05:10:07;101802.47;;;7.27;100.00
67931;BME280;63902;52.000;5.954;2023-04-16T05:11:08;101802.47;;;7.29;100.00
67931;BME280;63902;52.000;5.954;2023-04-16T05:12:08;101808.63;;;7.29;100.00
67931;BME280;63902;52.000;5.954;2023-04-16T05:13:09;101815.69;;;7.29;100.00
67931;BME280;63902;52.000;5.954;2023-04-16T05:14:09;101804.25;;;7.25;100.00
67931;BME280;63902;52.000;5.954;2023-04-16T05:15:10;101808.59;;;7.31;100.00
67931;BME280;63902;52.000;5.954;2023-04-16T05:16:10;101821.78;;;7.32;100.00
67931;BME280;63902;52.000;5.954;2023-04-16T05:17:11;101815.63;;;7.32;100.00
67931;BME280;63902;52.000;5.954;2023-04-16T05:18:11;101808.63;;;7.29;100.00